createdAt,value
2022-08-01T00:00:18.288Z,24.60
2022-08-01T00:02:45.249Z,24.60
2022-08-01T00:05:12.292Z,24.60
2022-08-01T00:07:39.833Z,24.60
2022-08-01T00:10:11.735Z,24.60
2022-08-01T00:12:39.049Z,24.60
2022-08-01T00:15:16.013Z,24.60
2022-08-01T00:17:44.267Z,24.60
2022-08-01T00:20:14.604Z,24.60
2022-08-01T00:22:41.553Z,24.60
2022-08-01T00:25:09.064Z,24.60
2022-08-01T00:27:37.632Z,24.60
2022-08-01T00:30:13.030Z,24.60
2022-08-01T00:32:44.591Z,24.60
2022-08-01T00:35:11.935Z,24.60
2022-08-01T00:37:38.887Z,24.60
2022-08-01T00:40:07.597Z,24.60
2022-08-01T00:42:34.502Z,24.60
2022-08-01T00:45:01.454Z,24.60
2022-08-01T00:47:28.320Z,24.50
2022-08-01T00:49:55.375Z,24.50
2022-08-01T00:52:22.392Z,24.50
2022-08-01T00:54:49.584Z,24.50
2022-08-01T00:57:16.705Z,24.50
2022-08-01T01:00:06.712Z,24.40
2022-08-01T01:02:34.967Z,24.40
2022-08-01T01:05:01.933Z,24.40
2022-08-01T01:08:05.031Z,24.40
2022-08-01T01:10:40.277Z,24.30
2022-08-01T01:13:30.743Z,24.30
2022-08-01T01:16:05.939Z,24.20
2022-08-01T01:18:46.026Z,24.20
2022-08-01T01:21:19.093Z,24.20
2022-08-01T01:24:22.345Z,24.20
2022-08-01T01:27:30.775Z,24.20
2022-08-01T01:30:01.259Z,24.10
2022-08-01T01:32:42.803Z,24.10
2022-08-01T01:35:18.716Z,24.10
2022-08-01T01:37:50.036Z,24.00
2022-08-01T01:40:19.299Z,24.00
2022-08-01T01:42:47.685Z,23.90
2022-08-01T01:45:16.386Z,23.90
2022-08-01T01:47:45.455Z,23.90
2022-08-01T01:50:14.010Z,23.90
2022-08-01T01:52:45.148Z,23.80
2022-08-01T01:55:16.122Z,23.80
2022-08-01T01:57:45.610Z,23.80
2022-08-01T02:00:15.051Z,23.80
2022-08-01T02:02:44.070Z,23.80
2022-08-01T02:05:14.320Z,23.80
2022-08-01T02:07:43.648Z,23.80
2022-08-01T02:10:13.176Z,23.80
2022-08-01T02:12:46.603Z,23.70
2022-08-01T02:15:17.050Z,23.80
2022-08-01T02:17:49.614Z,23.80
2022-08-01T02:20:18.154Z,23.80
2022-08-01T02:23:08.566Z,23.80
2022-08-01T02:26:10.502Z,23.70
2022-08-01T02:28:43.079Z,23.80
2022-08-01T02:31:16.896Z,23.70
2022-08-01T02:33:51.050Z,23.70
2022-08-01T02:36:32.313Z,23.70
2022-08-01T02:39:04.465Z,23.70
2022-08-01T02:41:37.036Z,23.70
2022-08-01T02:44:09.833Z,23.70
2022-08-01T02:46:55.377Z,23.60
2022-08-01T02:49:25.041Z,23.60
2022-08-01T02:51:55.348Z,23.60
2022-08-01T02:54:24.507Z,23.60
2022-08-01T02:56:53.849Z,23.60
2022-08-01T02:59:26.667Z,23.60
2022-08-01T03:01:57.085Z,23.50
2022-08-01T03:04:26.722Z,23.50
2022-08-01T03:06:59.371Z,23.50
2022-08-01T03:09:30.437Z,23.50
2022-08-01T03:12:05.615Z,23.50
2022-08-01T03:14:37.171Z,23.40
2022-08-01T03:17:06.736Z,23.40
2022-08-01T03:19:36.250Z,23.40
2022-08-01T03:22:07.432Z,23.30
2022-08-01T03:24:36.179Z,23.30
2022-08-01T03:27:04.915Z,23.30
2022-08-01T03:29:34.810Z,23.30
2022-08-01T03:32:03.722Z,23.30
2022-08-01T03:34:31.736Z,23.20
2022-08-01T03:37:13.432Z,23.20
2022-08-01T03:39:55.279Z,23.20
2022-08-01T03:42:30.000Z,23.20
2022-08-01T03:45:13.336Z,23.20
2022-08-01T03:47:45.621Z,23.20
2022-08-01T03:50:15.082Z,23.20
2022-08-01T03:52:46.075Z,23.20
2022-08-01T03:55:15.111Z,23.20
2022-08-01T03:57:44.006Z,23.10
2022-08-01T04:00:11.955Z,23.10
2022-08-01T04:02:40.202Z,23.10
2022-08-01T04:05:08.226Z,23.10
2022-08-01T04:07:40.226Z,23.10
2022-08-01T04:10:07.925Z,23.10
2022-08-01T04:12:35.950Z,23.10
2022-08-01T04:15:05.305Z,23.10
2022-08-01T04:17:32.384Z,23.10
2022-08-01T04:19:59.455Z,23.10
2022-08-01T04:22:31.498Z,23.10
2022-08-01T04:25:01.063Z,23.00
2022-08-01T04:27:49.992Z,23.10
2022-08-01T04:30:25.567Z,23.10
2022-08-01T04:32:56.152Z,23.00
2022-08-01T04:36:02.402Z,23.10
2022-08-01T04:38:24.300Z,23.00
2022-08-01T04:40:53.449Z,23.00
2022-08-01T04:43:20.877Z,23.10
2022-08-01T04:45:48.821Z,23.10
2022-08-01T04:48:22.558Z,23.10
2022-08-01T04:50:50.514Z,23.10
2022-08-01T04:53:22.895Z,23.10
2022-08-01T04:55:50.243Z,23.10
2022-08-01T04:58:18.539Z,23.10
2022-08-01T05:00:49.149Z,23.10
2022-08-01T05:03:16.064Z,23.10
2022-08-01T05:05:43.088Z,23.10
2022-08-01T05:08:09.959Z,23.10
2022-08-01T05:10:36.869Z,23.10
2022-08-01T05:13:03.923Z,23.10
2022-08-01T05:15:31.901Z,23.20
2022-08-01T05:17:58.929Z,23.20
2022-08-01T05:20:25.853Z,23.30
2022-08-01T05:22:52.722Z,23.30
2022-08-01T05:25:20.678Z,23.30
2022-08-01T05:28:06.564Z,23.40
2022-08-01T05:30:33.979Z,23.50
2022-08-01T05:33:01.049Z,23.50
2022-08-01T05:35:48.351Z,23.60
2022-08-01T05:38:14.974Z,23.60
2022-08-01T05:40:42.273Z,23.70
2022-08-01T05:43:09.286Z,23.70
2022-08-01T05:45:36.184Z,23.80
2022-08-01T05:48:03.311Z,23.80
2022-08-01T05:50:30.222Z,23.90
2022-08-01T05:52:57.081Z,23.90
2022-08-01T05:55:23.922Z,24.00
2022-08-01T05:57:50.788Z,24.00
2022-08-01T06:00:17.895Z,24.10
2022-08-01T06:02:44.891Z,24.10
2022-08-01T06:05:13.513Z,24.20
2022-08-01T06:07:41.445Z,24.20
2022-08-01T06:10:09.380Z,24.30
2022-08-01T06:12:37.181Z,24.30
2022-08-01T06:15:08.198Z,24.40
2022-08-01T06:17:35.158Z,24.40
2022-08-01T06:20:02.028Z,24.40
2022-08-01T06:22:29.016Z,24.50
2022-08-01T06:24:57.813Z,24.50
2022-08-01T06:27:25.888Z,24.60
2022-08-01T06:29:57.469Z,24.70
2022-08-01T06:32:27.367Z,24.70
2022-08-01T06:34:56.327Z,24.70
2022-08-01T06:37:24.421Z,24.80
2022-08-01T06:39:51.493Z,24.90
2022-08-01T06:42:18.837Z,24.90
2022-08-01T06:44:46.325Z,25.00
2022-08-01T06:47:13.601Z,25.00
2022-08-01T06:49:40.488Z,25.10
2022-08-01T06:52:07.894Z,25.20
2022-08-01T06:54:35.067Z,25.20
2022-08-01T06:57:01.935Z,25.20
2022-08-01T06:59:30.089Z,25.30
2022-08-01T07:01:56.921Z,25.30
2022-08-01T07:04:23.933Z,25.30
2022-08-01T07:06:50.762Z,25.40
2022-08-01T07:09:17.646Z,25.40
2022-08-01T07:11:44.535Z,25.50
2022-08-01T07:14:11.435Z,25.50
2022-08-01T07:16:38.488Z,25.60
2022-08-01T07:19:05.447Z,25.60
2022-08-01T07:21:40.708Z,25.80
2022-08-01T07:24:13.830Z,25.80
2022-08-01T07:26:52.223Z,25.80
2022-08-01T07:29:25.640Z,25.90
2022-08-01T07:31:58.604Z,26.00
2022-08-01T07:34:26.859Z,26.10
2022-08-01T07:36:54.430Z,26.10
2022-08-01T07:39:21.727Z,26.20
2022-08-01T07:42:05.702Z,26.20
2022-08-01T07:44:35.466Z,26.20
2022-08-01T07:47:02.558Z,26.30
2022-08-01T07:49:29.867Z,26.40
2022-08-01T07:52:03.213Z,26.50
2022-08-01T07:54:34.622Z,26.50
2022-08-01T07:57:04.098Z,26.60
2022-08-01T07:59:31.582Z,26.70
2022-08-01T08:01:58.753Z,26.80
2022-08-01T08:04:26.948Z,26.80
2022-08-01T08:06:54.774Z,27.00
2022-08-01T08:09:21.898Z,27.00
2022-08-01T08:11:48.958Z,27.10
2022-08-01T08:14:19.936Z,27.10
2022-08-01T08:16:47.049Z,27.20
2022-08-01T08:19:14.273Z,27.20
2022-08-01T08:21:41.613Z,27.30
2022-08-01T08:24:26.255Z,27.40
2022-08-01T08:26:58.115Z,27.50
2022-08-01T08:29:27.612Z,27.60
2022-08-01T08:31:57.046Z,27.70
2022-08-01T08:34:25.238Z,27.70
2022-08-01T08:36:52.802Z,27.90
2022-08-01T08:39:20.793Z,28.00
2022-08-01T08:41:49.540Z,28.10
2022-08-01T08:44:18.918Z,28.30
2022-08-01T08:46:50.028Z,28.50
2022-08-01T08:49:21.808Z,28.80
2022-08-01T08:51:53.002Z,29.20
2022-08-01T08:54:30.791Z,29.60
2022-08-01T08:57:01.430Z,29.90
2022-08-01T08:59:29.639Z,30.40
2022-08-01T09:01:58.362Z,30.80
2022-08-01T09:04:27.403Z,31.20
2022-08-01T09:06:55.683Z,31.70
2022-08-01T09:09:23.871Z,32.00
2022-08-01T09:11:56.784Z,32.40
2022-08-01T09:14:30.875Z,32.80
2022-08-01T09:17:11.874Z,33.10
2022-08-01T09:19:46.212Z,33.40
2022-08-01T09:22:22.181Z,33.80
2022-08-01T09:25:18.487Z,34.10
2022-08-01T09:27:46.504Z,34.40
2022-08-01T09:30:19.556Z,34.60
2022-08-01T09:33:01.816Z,34.60
2022-08-01T09:35:43.368Z,34.70
2022-08-01T09:38:22.885Z,34.70
2022-08-01T09:40:55.973Z,34.60
2022-08-01T09:43:28.705Z,34.50
2022-08-01T09:45:57.742Z,34.60
2022-08-01T09:48:28.571Z,34.80
2022-08-01T09:51:04.499Z,34.90
2022-08-01T09:53:52.347Z,35.10
2022-08-01T09:56:22.728Z,35.30
2022-08-01T09:59:00.623Z,35.50
2022-08-01T10:01:44.462Z,35.70
2022-08-01T10:04:12.975Z,35.90
2022-08-01T10:06:43.957Z,36.00
2022-08-01T10:09:13.554Z,36.10
2022-08-01T10:11:44.717Z,36.20
2022-08-01T10:14:18.291Z,36.40
2022-08-01T10:16:46.195Z,36.40
2022-08-01T10:19:24.755Z,36.50
2022-08-01T10:21:58.567Z,36.60
2022-08-01T10:24:31.149Z,36.70
2022-08-01T10:27:09.364Z,36.70
2022-08-01T10:30:08.636Z,36.60
2022-08-01T10:32:50.461Z,36.60
2022-08-01T10:35:38.005Z,36.70
2022-08-01T10:38:06.208Z,36.70
2022-08-01T10:40:43.000Z,36.80
2022-08-01T10:43:21.432Z,37.00
2022-08-01T10:45:51.019Z,37.10
2022-08-01T10:48:39.454Z,37.00
2022-08-01T10:51:18.406Z,37.00
2022-08-01T10:53:56.226Z,37.00
2022-08-01T10:56:26.497Z,37.10
2022-08-01T10:59:06.088Z,37.30
2022-08-01T11:01:37.510Z,37.50
2022-08-01T11:04:16.434Z,37.60
2022-08-01T11:07:07.902Z,37.70
2022-08-01T11:09:51.678Z,37.80
2022-08-01T11:12:24.497Z,37.80
2022-08-01T11:15:02.927Z,37.80
2022-08-01T11:17:48.568Z,37.70
2022-08-01T11:20:18.017Z,37.60
2022-08-01T11:23:05.034Z,37.30
2022-08-01T11:26:04.982Z,37.00
2022-08-01T11:28:33.113Z,36.70
2022-08-01T11:31:11.813Z,36.40
2022-08-01T11:33:45.637Z,36.10
2022-08-01T11:36:14.417Z,35.80
2022-08-01T11:39:14.211Z,35.50
2022-08-01T11:41:44.963Z,35.20
2022-08-01T11:44:18.823Z,34.80
2022-08-01T11:47:09.272Z,34.50
2022-08-01T11:49:50.443Z,34.10
2022-08-01T11:52:30.475Z,33.80
2022-08-01T11:55:12.880Z,33.60
2022-08-01T11:57:43.626Z,33.40
2022-08-01T12:00:19.220Z,33.20
2022-08-01T12:02:56.927Z,33.00
2022-08-01T12:05:27.567Z,32.90
2022-08-01T12:07:56.302Z,32.80
2022-08-01T12:10:27.570Z,32.80
2022-08-01T12:13:01.093Z,32.80
2022-08-01T12:15:35.207Z,32.80
2022-08-01T12:18:05.735Z,32.80
2022-08-01T12:20:34.818Z,32.80
2022-08-01T12:23:09.073Z,32.80
2022-08-01T12:25:38.244Z,32.90
2022-08-01T12:28:08.015Z,33.00
2022-08-01T12:30:37.119Z,33.10
2022-08-01T12:33:09.618Z,33.20
2022-08-01T12:35:39.337Z,33.30
2022-08-01T12:38:17.389Z,33.30
2022-08-01T12:40:52.361Z,33.40
2022-08-01T12:43:28.157Z,33.50
2022-08-01T12:46:01.394Z,33.50
2022-08-01T12:48:31.997Z,33.60
2022-08-01T12:51:02.081Z,33.60
2022-08-01T12:53:40.821Z,33.70
2022-08-01T12:56:13.901Z,33.70
2022-08-01T12:58:40.938Z,33.70
2022-08-01T13:01:11.571Z,33.70
2022-08-01T13:03:39.260Z,33.70
2022-08-01T13:06:17.835Z,33.80
2022-08-01T13:08:46.534Z,33.70
2022-08-01T13:11:16.322Z,33.80
2022-08-01T13:13:53.648Z,33.90
2022-08-01T13:16:30.611Z,34.00
2022-08-01T13:19:06.982Z,34.10
2022-08-01T13:21:52.640Z,34.20
2022-08-01T13:24:27.152Z,34.20
2022-08-01T13:27:05.101Z,34.10
2022-08-01T13:29:35.039Z,34.00
2022-08-01T13:32:28.480Z,33.90
2022-08-01T13:35:09.983Z,33.70
2022-08-01T13:37:38.863Z,33.60
2022-08-01T13:40:08.060Z,33.40
2022-08-01T13:42:35.603Z,33.30
2022-08-01T13:45:04.101Z,33.10
2022-08-01T13:47:41.335Z,33.00
2022-08-01T13:50:28.630Z,32.80
2022-08-01T13:52:55.467Z,32.70
2022-08-01T13:55:22.362Z,32.60
2022-08-01T13:57:49.223Z,32.50
2022-08-01T14:00:16.800Z,32.60
2022-08-01T14:02:43.674Z,32.50
2022-08-01T14:05:10.834Z,32.60
2022-08-01T14:07:38.218Z,32.50
2022-08-01T14:10:18.844Z,32.40
2022-08-01T14:12:48.577Z,32.40
2022-08-01T14:15:18.100Z,32.30
2022-08-01T14:18:03.467Z,32.20
2022-08-01T14:20:33.882Z,32.10
2022-08-01T14:23:00.726Z,32.10
2022-08-01T14:26:01.592Z,32.00
2022-08-01T14:28:14.679Z,31.90
2022-08-01T14:30:44.802Z,31.90
2022-08-01T14:33:13.077Z,31.80
2022-08-01T14:36:03.519Z,31.70
2022-08-01T14:38:31.697Z,31.60
2022-08-01T14:41:01.668Z,31.40
2022-08-01T14:43:33.124Z,31.30
2022-08-01T14:46:02.218Z,31.20
2022-08-01T14:48:30.237Z,31.10
2022-08-01T14:50:58.528Z,31.00
2022-08-01T14:53:25.538Z,30.90
2022-08-01T14:55:52.478Z,30.80
2022-08-01T14:58:19.414Z,30.80
2022-08-01T15:00:46.638Z,30.70
2022-08-01T15:03:13.978Z,30.70
2022-08-01T15:05:41.000Z,30.60
2022-08-01T15:08:08.214Z,30.50
2022-08-01T15:10:35.115Z,30.40
2022-08-01T15:13:02.698Z,30.40
2022-08-01T15:15:30.314Z,30.30
2022-08-01T15:17:57.841Z,30.20
2022-08-01T15:20:26.266Z,30.20
2022-08-01T15:22:53.774Z,30.10
2022-08-01T15:25:21.320Z,30.10
2022-08-01T15:27:48.457Z,30.10
2022-08-01T15:30:15.428Z,30.00
2022-08-01T15:32:42.384Z,30.00
2022-08-01T15:35:11.112Z,30.00
2022-08-01T15:37:42.640Z,29.90
2022-08-01T15:40:12.392Z,29.80
2022-08-01T15:42:39.974Z,29.80
2022-08-01T15:45:10.623Z,29.70
2022-08-01T15:47:40.324Z,29.60
2022-08-01T15:50:07.924Z,29.50
2022-08-01T15:52:35.348Z,29.30
2022-08-01T15:55:02.758Z,29.20
2022-08-01T15:57:29.723Z,29.10
2022-08-01T15:59:56.749Z,29.00
2022-08-01T16:02:23.885Z,28.80
2022-08-01T16:04:51.136Z,28.70
2022-08-01T16:07:17.995Z,28.60
2022-08-01T16:09:44.902Z,28.40
2022-08-01T16:12:11.860Z,28.30
2022-08-01T16:14:38.701Z,28.10
2022-08-01T16:17:05.609Z,28.10
2022-08-01T16:19:32.541Z,28.00
2022-08-01T16:21:59.495Z,27.90
2022-08-01T16:24:29.223Z,27.90
2022-08-01T16:26:57.495Z,27.80
2022-08-01T16:29:25.623Z,27.70
2022-08-01T16:31:59.639Z,27.70
2022-08-01T16:34:33.850Z,27.60
2022-08-01T16:37:02.384Z,27.50
2022-08-01T16:39:30.541Z,27.50
2022-08-01T16:42:00.952Z,27.50
2022-08-01T16:44:33.258Z,27.40
2022-08-01T16:47:03.901Z,27.40
2022-08-01T16:49:34.113Z,27.30
2022-08-01T16:52:01.164Z,27.30
2022-08-01T16:54:28.158Z,27.30
2022-08-01T16:56:57.893Z,27.20
2022-08-01T16:59:25.048Z,27.20
2022-08-01T17:02:03.432Z,27.20
2022-08-01T17:04:31.549Z,27.10
2022-08-01T17:06:58.439Z,27.10
2022-08-01T17:09:25.465Z,27.10
2022-08-01T17:11:52.456Z,27.10
2022-08-01T17:14:19.458Z,27.20
2022-08-01T17:16:46.627Z,27.20
2022-08-01T17:19:14.682Z,27.20
2022-08-01T17:21:42.825Z,27.30
2022-08-01T17:24:10.263Z,27.30
2022-08-01T17:26:41.871Z,27.40
2022-08-01T17:29:08.856Z,27.50
2022-08-01T17:31:35.868Z,27.70
2022-08-01T17:34:02.833Z,28.10
2022-08-01T17:36:29.851Z,28.30
2022-08-01T17:38:59.131Z,28.50
2022-08-01T17:41:26.315Z,28.70
2022-08-01T17:43:53.299Z,28.80
2022-08-01T17:46:20.429Z,28.80
2022-08-01T17:48:47.339Z,28.80
2022-08-01T17:51:18.148Z,28.70
2022-08-01T17:53:57.170Z,28.60
2022-08-01T17:56:26.793Z,28.50
2022-08-01T17:58:53.870Z,28.40
2022-08-01T18:01:21.976Z,28.30
2022-08-01T18:03:54.862Z,28.20
2022-08-01T18:06:23.441Z,28.10
2022-08-01T18:08:55.302Z,28.00
2022-08-01T18:11:24.730Z,27.90
2022-08-01T18:13:55.351Z,27.80
2022-08-01T18:16:22.769Z,27.70
2022-08-01T18:18:49.783Z,27.60
2022-08-01T18:21:16.777Z,27.60
2022-08-01T18:23:44.324Z,27.50
2022-08-01T18:26:19.229Z,27.40
2022-08-01T18:28:47.052Z,27.30
2022-08-01T18:31:17.261Z,27.20
2022-08-01T18:33:44.546Z,27.10
2022-08-01T18:36:23.888Z,27.00
2022-08-01T18:39:04.279Z,26.80
2022-08-01T18:41:43.927Z,26.70
2022-08-01T18:44:11.001Z,26.60
2022-08-01T18:46:39.668Z,26.50
2022-08-01T18:49:10.692Z,26.40
2022-08-01T18:51:44.268Z,26.30
2022-08-01T18:54:15.757Z,26.20
2022-08-01T18:56:44.977Z,26.20
2022-08-01T18:59:12.716Z,26.20
2022-08-01T19:01:42.892Z,26.20
2022-08-01T19:04:10.389Z,26.10
2022-08-01T19:06:38.939Z,26.10
2022-08-01T19:11:53.742Z,26.00
2022-08-01T19:14:20.872Z,26.00
2022-08-01T19:16:48.195Z,25.90
2022-08-01T19:19:15.035Z,25.80
2022-08-01T19:21:54.834Z,25.50
2022-08-01T19:24:22.699Z,25.30
2022-08-01T19:26:57.567Z,25.00
2022-08-01T19:29:35.133Z,24.70
2022-08-01T19:32:10.444Z,24.40
2022-08-01T19:35:03.754Z,24.10
2022-08-01T19:37:32.122Z,23.80
2022-08-01T19:40:00.211Z,23.60
2022-08-01T19:42:30.129Z,23.40
2022-08-01T19:44:58.948Z,23.30
2022-08-01T19:47:26.063Z,23.10
2022-08-01T19:50:13.786Z,23.00
2022-08-01T19:52:45.107Z,22.90
2022-08-01T19:55:13.928Z,22.80
2022-08-01T19:57:45.661Z,22.80
2022-08-01T20:00:28.103Z,22.70
2022-08-01T20:02:58.531Z,22.70
2022-08-01T20:05:26.296Z,22.60
2022-08-01T20:07:54.102Z,22.60
2022-08-01T20:10:21.441Z,22.60
2022-08-01T20:12:49.012Z,22.60
2022-08-01T20:15:16.861Z,22.60
2022-08-01T20:17:45.516Z,22.50
2022-08-01T20:20:12.651Z,22.50
2022-08-01T20:22:41.880Z,22.40
2022-08-01T20:25:10.557Z,22.40
2022-08-01T20:27:40.106Z,22.30
2022-08-01T20:30:07.855Z,22.30
2022-08-01T20:32:40.240Z,22.30
2022-08-01T20:35:08.480Z,22.30
2022-08-01T20:38:04.144Z,22.20
2022-08-01T20:40:30.289Z,22.20
2022-08-01T20:42:58.314Z,22.20
2022-08-01T20:45:27.227Z,22.20
2022-08-01T20:47:56.095Z,22.20
2022-08-01T20:50:52.698Z,22.20
2022-08-01T20:53:25.161Z,22.20
2022-08-01T20:56:09.233Z,22.20
2022-08-01T20:58:58.778Z,22.20
2022-08-01T21:01:33.750Z,22.20
2022-08-01T21:04:33.741Z,22.20
2022-08-01T21:07:28.172Z,22.20
2022-08-01T21:10:11.782Z,22.20
2022-08-01T21:12:58.508Z,22.20
2022-08-01T21:16:04.244Z,22.20
2022-08-01T21:18:58.258Z,22.20
2022-08-01T21:21:36.243Z,22.20
2022-08-01T21:24:13.990Z,22.20
2022-08-01T21:26:43.603Z,22.20
2022-08-01T21:29:15.299Z,22.10
2022-08-01T21:31:42.368Z,22.10
2022-08-01T21:34:09.833Z,22.00
2022-08-01T21:36:37.105Z,22.00
2022-08-01T21:39:07.345Z,22.00
2022-08-01T21:42:04.918Z,22.00
2022-08-01T21:44:28.842Z,21.90
2022-08-01T21:47:00.105Z,21.80
2022-08-01T21:49:27.563Z,21.70
2022-08-01T21:52:05.220Z,21.70
2022-08-01T21:55:15.690Z,21.50
2022-08-01T21:58:28.117Z,21.40
2022-08-01T22:01:10.158Z,21.30
2022-08-01T22:03:47.692Z,21.20
2022-08-01T22:06:18.955Z,21.10
2022-08-01T22:08:52.285Z,21.10
2022-08-01T22:11:30.236Z,21.00
2022-08-01T22:14:09.459Z,21.00
2022-08-01T22:16:40.841Z,21.00
2022-08-01T22:19:09.759Z,20.90
2022-08-01T22:21:57.263Z,20.90
2022-08-01T22:24:25.994Z,20.80
2022-08-01T22:26:55.858Z,20.80
2022-08-01T22:29:23.268Z,20.70
2022-08-01T22:31:56.806Z,20.60
2022-08-01T22:34:26.592Z,20.50
2022-08-01T22:36:56.037Z,20.40
2022-08-01T22:39:24.211Z,20.30
2022-08-01T22:42:01.604Z,20.20
2022-08-01T22:45:01.942Z,20.10
2022-08-01T22:48:05.672Z,19.90
2022-08-01T22:50:43.544Z,19.90
2022-08-01T22:53:41.413Z,19.80
2022-08-01T22:56:11.028Z,19.80
2022-08-01T22:58:41.301Z,19.70
2022-08-01T23:01:21.198Z,19.70
2022-08-01T23:03:54.306Z,19.70
2022-08-01T23:06:43.053Z,19.70
2022-08-01T23:09:10.466Z,19.70
2022-08-01T23:11:38.504Z,19.70
2022-08-01T23:14:06.026Z,19.70
2022-08-01T23:16:35.350Z,19.70
2022-08-01T23:19:03.711Z,19.70
2022-08-01T23:21:32.127Z,19.70
2022-08-01T23:24:01.136Z,19.70
2022-08-01T23:26:30.463Z,19.70
2022-08-01T23:28:58.865Z,19.70
2022-08-01T23:32:03.581Z,19.70
2022-08-01T23:34:19.432Z,19.70
2022-08-01T23:36:46.958Z,19.80
2022-08-01T23:39:13.859Z,19.70
2022-08-01T23:41:58.571Z,19.80
2022-08-01T23:44:26.951Z,19.80
2022-08-01T23:46:53.967Z,19.80
2022-08-01T23:49:21.397Z,19.80
2022-08-01T23:51:48.489Z,19.80
2022-08-01T23:54:15.835Z,19.80
2022-08-01T23:56:43.761Z,19.80
2022-08-01T23:59:13.026Z,19.80
